Terminal Aerodrome Forecast
Issued by NWS Mt. Holly, NJ

Home | Current Version | Previous Version | Text Only | Print | Product List | Glossary On
Versions: 1 2 3 4 5 6 7 8 9 10 11 12
931
FTUS41 KPHI 230529
TAFILG
TAF
KILG 230529Z 2306/2406 22004KT 5SM BR BKN200
     FM230800 VRB03KT 3SM BR BKN010
     FM231000 VRB03KT 1/2SM FG VV002
     FM231500 22004KT 4SM BR BKN008
     FM231600 22006KT P6SM BKN025
     FM231800 18006KT P6SM SCT040=

USA.gov is the U.S. government's official web portal to all federal, state and local government web resources and services.